createdAt,value
2022-12-23T00:03:01.739Z,94941.09
2022-12-23T00:08:09.393Z,94932.03
2022-12-23T00:13:29.830Z,94924.53
2022-12-23T00:18:39.748Z,94905.31
2022-12-23T00:23:48.590Z,94910.16
2022-12-23T00:29:03.621Z,94896.28
2022-12-23T00:34:10.400Z,94905.91
2022-12-23T00:39:33.203Z,94872.75
2022-12-23T00:44:51.851Z,94831.94
2022-12-23T00:49:57.168Z,94854.63
2022-12-23T00:55:10.836Z,94831.97
2022-12-23T01:00:16.126Z,94829.28
2022-12-23T01:05:40.730Z,94825.25
2022-12-23T01:10:48.011Z,94831.16
2022-12-23T01:15:54.506Z,94806.56
2022-12-23T01:20:59.754Z,94804.19
2022-12-23T01:26:04.032Z,94805.25
2022-12-23T01:31:11.278Z,94821.28
2022-12-23T01:36:18.188Z,94823.97
2022-12-23T01:41:37.494Z,94821.28
2022-12-23T01:46:42.929Z,94819.38
2022-12-23T01:51:50.325Z,94823.09
2022-12-23T01:56:54.720Z,94825.22
2022-12-23T02:02:16.656Z,94834.28
2022-12-23T02:07:37.198Z,94807.03
2022-12-23T02:12:41.375Z,94808.63
2022-12-23T02:17:44.948Z,94810.47
2022-12-23T02:22:48.539Z,94823.03
2022-12-23T02:27:53.531Z,94824.06
2022-12-23T02:33:00.254Z,94825.13
2022-12-23T02:38:03.611Z,94830.47
2022-12-23T02:43:06.959Z,94836.81
2022-12-23T02:48:14.155Z,94839.97
2022-12-23T02:53:19.991Z,94830.50
2022-12-23T02:58:23.507Z,94835.47
2022-12-23T03:03:29.134Z,94834.81
2022-12-23T03:08:34.420Z,94822.41
2022-12-23T03:13:38.859Z,94838.75
2022-12-23T03:18:46.736Z,94829.31
2022-12-23T03:23:55.528Z,94838.66
2022-12-23T03:29:00.196Z,94827.09
2022-12-23T03:34:03.947Z,94830.72
2022-12-23T03:39:10.235Z,94823.47
2022-12-23T03:44:13.608Z,94838.09
2022-12-23T03:49:17.165Z,94843.13
2022-12-23T03:54:32.361Z,94846.00
2022-12-23T03:59:37.156Z,94846.50
2022-12-23T04:04:44.588Z,94855.22
2022-12-23T04:09:49.123Z,94860.28
2022-12-23T04:14:53.987Z,94850.06
2022-12-23T04:20:00.163Z,94857.84
2022-12-23T04:25:06.802Z,94865.91
2022-12-23T04:30:15.166Z,94870.69
2022-12-23T04:35:18.757Z,94883.34
2022-12-23T04:40:24.841Z,94888.69
2022-12-23T04:45:36.050Z,94886.25
2022-12-23T04:50:40.927Z,94891.00
2022-12-23T04:55:46.682Z,94899.06
2022-12-23T05:00:56.570Z,94902.25
2022-12-23T05:06:11.372Z,94891.47
2022-12-23T05:11:29.712Z,94897.28
2022-12-23T05:16:34.421Z,94896.97
2022-12-23T05:21:40.789Z,94911.63
2022-12-23T05:26:48.076Z,94905.13
2022-12-23T05:31:52.713Z,94902.13
2022-12-23T05:36:59.549Z,94915.88
2022-12-23T05:42:02.595Z,94911.06
2022-12-23T05:47:08.387Z,94915.56
2022-12-23T05:52:12.413Z,94924.47
2022-12-23T05:57:18.738Z,94928.81
2022-12-23T06:02:24.600Z,94923.38
2022-12-23T06:07:27.605Z,94915.41
2022-12-23T06:12:31.136Z,94922.19
2022-12-23T06:17:34.551Z,94920.50
2022-12-23T06:22:43.343Z,94942.41
2022-12-23T06:27:46.646Z,94935.81
2022-12-23T06:32:50.674Z,94950.84
2022-12-23T06:38:00.776Z,94957.84
2022-12-23T06:43:04.479Z,94965.22
2022-12-23T06:48:08.250Z,94983.69
2022-12-23T06:53:12.618Z,94971.13
2022-12-23T06:58:17.182Z,94983.25
2022-12-23T07:03:21.491Z,94999.91
2022-12-23T07:08:26.623Z,95001.53
2022-12-23T07:13:31.215Z,95019.72
2022-12-23T07:18:35.055Z,95020.13
2022-12-23T07:23:39.428Z,95021.97
2022-12-23T07:28:43.306Z,95023.22
2022-12-23T07:33:49.832Z,95033.94
2022-12-23T07:38:55.336Z,95023.78
2022-12-23T07:43:58.271Z,95039.81
2022-12-23T07:49:01.927Z,95036.56
2022-12-23T07:54:05.475Z,95031.25
2022-12-23T07:59:09.109Z,95041.94
2022-12-23T08:04:12.160Z,95036.28
2022-12-23T08:09:16.033Z,95038.31
2022-12-23T08:14:19.993Z,95046.31
2022-12-23T08:19:23.601Z,95049.13
2022-12-23T08:24:29.286Z,95048.78
2022-12-23T08:29:36.378Z,95055.06
2022-12-23T08:34:47.979Z,95047.22
2022-12-23T08:39:51.422Z,95046.97
2022-12-23T08:45:04.811Z,95043.53
2022-12-23T08:50:10.252Z,95044.88
2022-12-23T08:55:18.753Z,95046.81
2022-12-23T09:00:24.544Z,95055.69
2022-12-23T09:05:30.720Z,95078.28
2022-12-23T09:10:34.231Z,95095.28
2022-12-23T09:15:42.543Z,95107.63
2022-12-23T09:20:47.586Z,95108.16
2022-12-23T09:25:57.616Z,95093.63
2022-12-23T09:31:04.247Z,95077.19
2022-12-23T09:36:10.707Z,95075.59
2022-12-23T09:41:14.774Z,95074.75
2022-12-23T09:46:19.742Z,95083.56
2022-12-23T09:51:24.651Z,95075.09
2022-12-23T09:56:31.194Z,95073.19
2022-12-23T10:01:44.443Z,95069.06
2022-12-23T10:06:56.232Z,95066.13
2022-12-23T10:12:00.700Z,95061.41
2022-12-23T10:17:04.582Z,95055.75
2022-12-23T10:22:10.678Z,95061.69
2022-12-23T10:27:19.427Z,95041.31
2022-12-23T10:32:28.480Z,95036.84
2022-12-23T10:37:32.558Z,95046.41
2022-12-23T10:42:45.504Z,95049.91
2022-12-23T10:47:50.478Z,95037.06
2022-12-23T10:52:54.801Z,95040.84
2022-12-23T10:57:59.811Z,95047.25
2022-12-23T11:03:04.214Z,95055.88
2022-12-23T11:08:12.621Z,95048.94
2022-12-23T11:13:18.814Z,95057.72
2022-12-23T11:18:22.515Z,95046.16
2022-12-23T11:23:26.957Z,95039.63
2022-12-23T11:28:32.406Z,95042.59
2022-12-23T11:33:35.803Z,95031.56
2022-12-23T11:38:40.889Z,95020.72
2022-12-23T11:43:44.753Z,95025.75
2022-12-23T11:48:54.572Z,95019.13
2022-12-23T11:53:58.952Z,95011.06
2022-12-23T11:59:02.522Z,95001.22
2022-12-23T12:04:05.806Z,94996.34
2022-12-23T12:09:10.928Z,94989.91
2022-12-23T12:14:16.899Z,94988.72
2022-12-23T12:19:22.257Z,94985.16
2022-12-23T12:24:30.261Z,94958.25
2022-12-23T12:29:35.354Z,94948.75
2022-12-23T12:34:40.002Z,94962.00
2022-12-23T12:39:43.682Z,94951.13
2022-12-23T12:44:47.891Z,94948.53
2022-12-23T12:49:54.572Z,94940.66
2022-12-23T12:54:57.963Z,94945.63
2022-12-23T13:00:06.422Z,94943.09
2022-12-23T13:05:10.266Z,94946.22
2022-12-23T13:10:14.635Z,94947.19
2022-12-23T13:15:18.504Z,94945.16
2022-12-23T13:20:23.751Z,94943.06
2022-12-23T13:25:30.320Z,94941.03
2022-12-23T13:30:36.230Z,94918.03
2022-12-23T13:35:42.347Z,94920.84
2022-12-23T13:40:46.676Z,94923.09
2022-12-23T13:45:55.372Z,94925.25
2022-12-23T13:51:02.213Z,94922.66
2022-12-23T13:56:17.294Z,94920.59
2022-12-23T14:01:20.948Z,94919.09
2022-12-23T14:06:25.347Z,94908.63
2022-12-23T14:11:29.370Z,94913.28
2022-12-23T14:16:33.275Z,94901.25
2022-12-23T14:21:39.542Z,94907.47
2022-12-23T14:26:42.785Z,94891.91
2022-12-23T14:31:48.500Z,94912.09
2022-12-23T14:36:55.348Z,94895.00
2022-12-23T14:42:05.463Z,94890.44
2022-12-23T14:47:13.494Z,94880.50
2022-12-23T14:52:19.801Z,94871.13
2022-12-23T14:57:31.210Z,94873.31
2022-12-23T15:02:48.692Z,94869.53
2022-12-23T15:07:53.109Z,94877.63
2022-12-23T15:12:57.693Z,94875.78
2022-12-23T15:18:02.539Z,94877.72
2022-12-23T15:23:07.102Z,94874.25
2022-12-23T15:28:13.204Z,94871.41
2022-12-23T15:33:52.037Z,94865.81
2022-12-23T15:38:43.963Z,94873.94
2022-12-23T15:43:52.855Z,94874.13
2022-12-23T15:48:59.131Z,94867.41
2022-12-23T15:54:03.434Z,94869.00
2022-12-23T15:59:08.160Z,94866.63
2022-12-23T16:04:14.339Z,94870.38
2022-12-23T16:09:22.482Z,94860.16
2022-12-23T16:14:29.795Z,94860.97
2022-12-23T16:19:34.021Z,94859.88
2022-12-23T16:24:41.480Z,94844.50
2022-12-23T16:29:44.790Z,94846.41
2022-12-23T16:34:49.149Z,94841.81
2022-12-23T16:39:54.809Z,94859.44
2022-12-23T16:44:58.027Z,94873.38
2022-12-23T16:50:03.393Z,94854.81
2022-12-23T16:55:06.489Z,94856.63
2022-12-23T17:00:11.102Z,94864.09
2022-12-23T17:05:18.344Z,94860.69
2022-12-23T17:10:23.263Z,94868.38
2022-12-23T17:15:32.963Z,94863.25
2022-12-23T17:25:55.903Z,94873.91
2022-12-23T17:30:59.991Z,94874.34
2022-12-23T17:36:07.848Z,94876.34
2022-12-23T17:41:14.326Z,94877.38
2022-12-23T17:46:21.429Z,94867.56
2022-12-23T17:51:25.185Z,94885.06
2022-12-23T17:56:28.476Z,94886.72
2022-12-23T18:01:33.366Z,94874.97
2022-12-23T18:06:39.299Z,94866.03
2022-12-23T18:11:51.136Z,94865.31
2022-12-23T18:16:56.390Z,94876.50
2022-12-23T18:22:01.161Z,94862.34
2022-12-23T18:27:05.041Z,94875.94
2022-12-23T18:32:10.277Z,94868.16
2022-12-23T18:37:16.874Z,94870.31
2022-12-23T18:42:21.892Z,94865.75
2022-12-23T18:47:25.509Z,94865.75
2022-12-23T18:52:31.199Z,94857.63
2022-12-23T18:57:34.845Z,94848.91
2022-12-23T19:02:44.250Z,94851.69
2022-12-23T19:07:49.779Z,94848.03
2022-12-23T19:12:54.172Z,94848.91
2022-12-23T19:17:59.270Z,94863.44
2022-12-23T19:23:02.738Z,94869.03
2022-12-23T19:28:06.449Z,94857.25
2022-12-23T19:33:10.587Z,94845.41
2022-12-23T19:38:19.307Z,94856.28
2022-12-23T19:43:23.977Z,94864.53
2022-12-23T19:48:30.302Z,94862.31
2022-12-23T19:53:38.063Z,94879.34
2022-12-23T19:58:44.587Z,94879.84
2022-12-23T20:03:51.642Z,94868.66
2022-12-23T20:09:00.806Z,94893.25
2022-12-23T20:14:07.031Z,94886.28
2022-12-23T20:19:12.721Z,94893.88
2022-12-23T20:24:17.419Z,94889.50
2022-12-23T20:29:21.941Z,94897.97
2022-12-23T20:34:26.972Z,94888.63
2022-12-23T20:39:32.254Z,94902.88
2022-12-23T20:44:37.313Z,94896.13
2022-12-23T20:49:42.182Z,94915.03
2022-12-23T20:54:45.750Z,94936.28
2022-12-23T20:59:48.986Z,94948.16
2022-12-23T21:04:52.883Z,94959.31
2022-12-23T21:09:56.952Z,94954.34
2022-12-23T21:15:04.711Z,94935.94
2022-12-23T21:20:10.844Z,95033.13
2022-12-23T21:25:17.418Z,95004.22
2022-12-23T21:30:23.483Z,95002.47
2022-12-23T21:35:31.793Z,95043.38
2022-12-23T21:40:40.832Z,95052.59
2022-12-23T21:45:48.872Z,95034.34
2022-12-23T21:51:02.762Z,95048.84
2022-12-23T21:56:09.966Z,95063.84
2022-12-23T22:01:21.522Z,95064.41
2022-12-23T22:06:25.461Z,95042.44
2022-12-23T22:11:30.131Z,95050.72
2022-12-23T22:16:36.838Z,95068.34
2022-12-23T22:21:43.618Z,95069.31
2022-12-23T22:26:49.559Z,95048.44
2022-12-23T22:31:53.654Z,95075.13
2022-12-23T22:36:59.366Z,95075.53
2022-12-23T22:42:05.317Z,95064.50
2022-12-23T22:47:09.251Z,95071.19
2022-12-23T22:52:13.575Z,95099.59
2022-12-23T22:57:20.052Z,95091.69
2022-12-23T23:02:23.942Z,95105.09
2022-12-23T23:07:29.866Z,95067.06
2022-12-23T23:12:34.268Z,95090.47
2022-12-23T23:17:38.815Z,95092.28
2022-12-23T23:22:43.181Z,95080.53
2022-12-23T23:27:49.964Z,95076.28
2022-12-23T23:33:01.723Z,95101.56
2022-12-23T23:38:11.712Z,95113.88
2022-12-23T23:43:17.662Z,95104.75
2022-12-23T23:48:22.829Z,95128.34
2022-12-23T23:53:31.239Z,95123.53
2022-12-23T23:58:37.900Z,95106.94
